| time (UTC) | temp F | wind direction | speed MPH | gust MPH | rain 1hr in | rain 24hr in | rain mn in | humidity % | barometer mb |
| 20260903043108 | 56 | 161 | 1.0 | 5.0 | 0.00 | 0.52 | 0.52 | 88 | 1009.9 |
| 20260903041555 | 56 | 152 | 0.0 | 5.0 | 0.00 | 0.52 | 0.52 | 89 | 1009.7 |
| 20260903040053 | 57 | 148 | 2.0 | 6.0 | 0.00 | 0.52 | 0.52 | 90 | 1009.6 |
| 20260903034557 | 57 | 171 | 2.0 | 6.0 | 0.00 | 0.52 | 0.52 | 90 | 1009.4 |
| 20260903033055 | 57 | 163 | 2.0 | 6.0 | 0.00 | 0.52 | 0.52 | 90 | 1009.4 |
| 20260903031606 | 57 | 158 | 2.0 | 5.0 | 0.00 | 0.52 | 0.52 | 90 | 1009.3 |
| 20260903030049 | 57 | 0 | 1.0 | 3.0 | 0.00 | 0.52 | 0.52 | 90 | 1008.9 |
| 20260903024548 | 57 | 168 | 1.0 | 4.0 | 0.00 | 0.52 | 0.52 | 91 | 1008.8 |
| 20260903023054 | 58 | 149 | 1.0 | 4.0 | 0.00 | 0.52 | 0.52 | 91 | 1008.7 |
| 20260903021555 | 58 | 163 | 1.0 | 6.0 | 0.01 | 0.52 | 0.52 | 91 | 1008.4 |
| 20260903020052 | 58 | 157 | 0.0 | 4.0 | 0.01 | 0.52 | 0.52 | 91 | 1008.4 |
| 20260903014603 | 58 | 151 | 2.0 | 4.0 | 0.01 | 0.52 | 0.52 | 91 | 1008.3 |
| 20260903013052 | 58 | 0 | 0.0 | 2.0 | 0.02 | 0.52 | 0.52 | 91 | 1008.2 |
| 20260903011607 | 58 | 0 | 0.0 | 7.0 | 0.01 | 0.51 | 0.51 | 91 | 1008.2 |
| 20260903010059 | 58 | 181 | 2.0 | 6.0 | 0.04 | 0.51 | 0.51 | 92 | 1007.9 |
| 20260903004556 | 58 | 173 | 2.0 | 7.0 | 0.17 | 0.51 | 0.51 | 92 | 1007.7 |
| 20260903003054 | 58 | 163 | 1.0 | 4.0 | 0.19 | 0.50 | 0.50 | 92 | 1007.8 |
| 20260903001552 | 58 | 0 | 0.0 | 7.0 | 0.20 | 0.50 | 0.50 | 91 | 1007.5 |
| 20260903000046 | 59 | 214 | 0.0 | 4.0 | 0.16 | 0.46 | 0.46 | 90 | 1007.8 |
| 20260902234558 | 59 | 248 | 1.0 | 11.0 | 0.03 | 0.33 | 0.33 | 89 | 1007.7 |
| 20260902233057 | 60 | 227 | 3.0 | 11.0 | 0.01 | 0.31 | 0.31 | 87 | 1007.5 |
| 20260902231554 | 60 | 153 | 4.0 | 12.0 | 0.00 | 0.30 | 0.30 | 85 | 1007.4 |
| 20260902230057 | 60 | 187 | 3.0 | 6.0 | 0.00 | 0.30 | 0.30 | 88 | 1007.4 |
| 20260902224554 | 59 | 182 | 0.0 | 3.0 | 0.01 | 0.30 | 0.30 | 91 | 1007.2 |
| 20260902223100 | 59 | 0 | 1.0 | 3.0 | 0.01 | 0.30 | 0.30 | 91 | 1007.2 |
| 20260902221549 | 59 | 0 | 0.0 | 0.0 | 0.01 | 0.30 | 0.30 | 91 | 1007.3 |
| 20260902220104 | 59 | 0 | 0.0 | 0.0 | 0.01 | 0.30 | 0.30 | 90 | 1007.1 |
| 20260902214602 | 59 | 0 | 0.0 | 2.0 | 0.01 | 0.29 | 0.29 | 91 | 1007.1 |
| 20260902213049 | 59 | 107 | 1.0 | 4.0 | 0.04 | 0.29 | 0.29 | 90 | 1007.2 |
| 20260902211611 | 59 | 162 | 0.0 | 5.0 | 0.08 | 0.29 | 0.29 | 92 | 1007.1 |
| 20260902210113 | 59 | 0 | 0.0 | 4.0 | 0.12 | 0.29 | 0.29 | 91 | 1007.0 |
| 20260902204558 | 59 | 0 | 0.0 | 0.0 | 0.15 | 0.28 | 0.28 | 91 | 1006.8 |
| 20260902203057 | 59 | 0 | 0.0 | 0.0 | 0.13 | 0.25 | 0.25 | 91 | 1006.7 |
| 20260902201609 | 58 | 0 | 0.0 | 1.0 | 0.10 | 0.21 | 0.21 | 90 | 1006.8 |
| 20260902200057 | 58 | 0 | 0.0 | 2.0 | 0.07 | 0.16 | 0.16 | 90 | 1006.9 |
| 20260902194553 | 59 | 86 | 1.0 | 4.0 | 0.05 | 0.13 | 0.13 | 89 | 1007.0 |
| 20260902193054 | 59 | 84 | 2.0 | 4.0 | 0.05 | 0.12 | 0.12 | 88 | 1007.1 |
| 20260902191602 | 59 | 0 | 0.0 | 0.0 | 0.06 | 0.11 | 0.11 | 90 | 1007.3 |
| 20260902190052 | 59 | 0 | 0.0 | 0.0 | 0.08 | 0.09 | 0.09 | 88 | 1007.4 |
| 20260902184624 | 60 | 0 | 0.0 | 3.0 | 0.08 | 0.08 | 0.08 | 90 | 1007.7 |
| 20260902183057 | 61 | 0 | 0.0 | 5.0 | 0.07 | 0.07 | 0.07 | 84 | 1007.8 |
| 20260902181605 | 62 | 0 | 1.0 | 3.0 | 0.04 | 0.04 | 0.04 | 82 | 1007.9 |
| 20260902180114 | 63 | 0 | 0.0 | 0.0 | 0.01 | 0.01 | 0.01 | 80 | 1007.6 |
| 20260902174555 | 63 | 0 | 0.0 | 1.0 | 0.00 | 0.00 | 0.00 | 78 | 1007.3 |
| 20260902173056 | 63 | 0 | 0.0 | 2.0 | 0.00 | 0.00 | 0.00 | 76 | 1007.0 |
| 20260902171558 | 64 | 132 | 2.0 | 3.0 | 0.00 | 0.00 | 0.00 | 74 | 1007.0 |
| 20260902170054 | 63 | 0 | 0.0 | 0.0 | 0.00 | 0.00 | 0.00 | 73 | 1007.1 |
| 20260902164551 | 63 | 0 | 0.0 | 2.0 | 0.00 | 0.00 | 0.00 | 70 | 1006.8 |
| 20260902163054 | 63 | 0 | 0.0 | 3.0 | 0.00 | 0.00 | 0.00 | 70 | 1006.9 |
| 20260902161556 | 62 | 0 | 0.0 | 4.0 | 0.00 | 0.00 | 0.00 | 70 | 1007.0 |
| 20260902160051 | 62 | 0 | 0.0 | 2.0 | 0.00 | 0.00 | 0.00 | 70 | 1007.1 |
| 20260902154555 | 62 | 171 | 1.0 | 4.0 | 0.00 | 0.00 | 0.00 | 70 | 1007.3 |
| 20260902153052 | 61 | 173 | 1.0 | 5.0 | 0.00 | 0.00 | 0.00 | 70 | 1007.4 |
| 20260902151602 | 61 | 161 | 1.0 | 5.0 | 0.00 | 0.00 | 0.00 | 71 | 1007.6 |
| 20260902150058 | 61 | 143 | 1.0 | 5.0 | 0.00 | 0.00 | 0.00 | 71 | 1007.7 |
| 20260902144607 | 61 | 178 | 0.0 | 3.0 | 0.00 | 0.00 | 0.00 | 72 | 1007.8 |
| 20260902143055 | 60 | 180 | 0.0 | 2.0 | 0.00 | 0.00 | 0.00 | 72 | 1008.0 |
| 20260902141548 | 60 | 98 | 2.0 | 4.0 | 0.00 | 0.00 | 0.00 | 73 | 1008.2 |
| 20260902140055 | 60 | 116 | 0.0 | 3.0 | 0.00 | 0.00 | 0.00 | 72 | 1008.5 |
| 20260902134558 | 60 | 0 | 0.0 | 3.0 | 0.00 | 0.00 | 0.00 | 72 | 1008.7 |
| 20260902133056 | 60 | 123 | 0.0 | 3.0 | 0.00 | 0.00 | 0.00 | 72 | 1009.0 |
| 20260902131556 | 60 | 0 | 1.0 | 3.0 | 0.00 | 0.00 | 0.00 | 72 | 1009.1 |
| 20260902130103 | 60 | 0 | 0.0 | 3.0 | 0.00 | 0.00 | 0.00 | 74 | 1009.3 |
| 20260902124556 | 60 | 0 | 0.0 | 0.0 | 0.00 | 0.00 | 0.00 | 73 | 1009.6 |
| 20260902123057 | 60 | 0 | 0.0 | 0.0 | 0.00 | 0.00 | 0.00 | 72 | 1009.7 |
| 20260902121556 | 60 | 168 | 0.0 | 1.0 | 0.00 | 0.00 | 0.00 | 72 | 1009.9 |
| 20260902120053 | 60 | 0 | 0.0 | 0.0 | 0.00 | 0.00 | 0.00 | 74 | 1010.0 |
| 20260902114555 | 60 | 0 | 0.0 | 0.0 | 0.00 | 0.00 | 0.00 | 74 | 1010.2 |
| 20260902113054 | 60 | 0 | 0.0 | 0.0 | 0.00 | 0.00 | 0.00 | 76 | 1010.3 |
| 20260902111552 | 60 | 0 | 0.0 | 0.0 | 0.00 | 0.00 | 0.00 | 74 | 1010.5 |
| 20260902110055 | 60 | 0 | 0.0 | 0.0 | 0.00 | 0.00 | 0.00 | 75 | 1010.6 |
| 20260902104551 | 61 | 0 | 0.0 | 0.0 | 0.00 | 0.00 | 0.00 | 72 | 1010.7 |
| 20260902103052 | 61 | 0 | 0.0 | 2.0 | 0.00 | 0.00 | 0.00 | 72 | 1010.7 |
| 20260902101549 | 61 | 122 | 0.0 | 0.0 | 0.00 | 0.00 | 0.00 | 72 | 1010.8 |
| 20260902100104 | 61 | 0 | 0.0 | 3.0 | 0.00 | 0.00 | 0.00 | 71 | 1010.9 |
| 20260902094607 | 61 | 207 | 0.0 | 4.0 | 0.00 | 0.00 | 0.00 | 72 | 1011.2 |
| 20260902093050 | 61 | 174 | 0.0 | 3.0 | 0.00 | 0.00 | 0.00 | 72 | 1011.2 |
| 20260902091555 | 61 | 0 | 2.0 | 5.0 | 0.00 | 0.00 | 0.00 | 73 | 1011.4 |
| 20260902090046 | 61 | 0 | 1.0 | 7.0 | 0.00 | 0.00 | 0.00 | 73 | 1011.4 |
| 20260902084553 | 61 | 181 | 0.0 | 5.0 | 0.00 | 0.00 | 0.00 | 74 | 1011.5 |
| 20260902083055 | 61 | 167 | 0.0 | 4.0 | 0.00 | 0.00 | 0.00 | 74 | 1011.6 |
| 20260902081548 | 61 | 0 | 0.0 | 1.0 | 0.00 | 0.00 | 0.00 | 72 | 1011.4 |
| 20260902080111 | 61 | 186 | 0.0 | 2.0 | 0.00 | 0.00 | 0.00 | 72 | 1011.4 |
| 20260902074552 | 62 | 161 | 1.0 | 3.0 | 0.00 | 0.00 | 0.00 | 72 | 1011.6 |
| 20260902073048 | 62 | 0 | 0.0 | 1.0 | 0.00 | 0.00 | 0.00 | 71 | 1011.6 |
| 20260902071553 | 62 | 0 | 0.0 | 1.0 | 0.00 | 0.00 | 0.00 | 70 | 1011.7 |
| 20260902070101 | 62 | 184 | 0.0 | 3.0 | 0.00 | 0.00 | 0.00 | 70 | 1012.0 |
| 20260902064607 | 62 | 200 | 1.0 | 7.0 | 0.00 | 0.00 | 0.00 | 70 | 1012.0 |
| 20260902063054 | 62 | 0 | 0.0 | 3.0 | 0.00 | 0.00 | 0.00 | 69 | 1012.1 |
| 20260902061558 | 63 | 159 | 0.0 | 5.0 | 0.00 | 0.00 | 0.00 | 69 | 1012.0 |
| 20260902060100 | 63 | 202 | 0.0 | 3.0 | 0.00 | 0.00 | 0.00 | 68 | 1012.0 |
| 20260902054547 | 64 | 193 | 1.0 | 6.0 | 0.00 | 0.00 | 0.00 | 67 | 1012.3 |
| 20260902053059 | 64 | 179 | 1.0 | 5.0 | 0.00 | 0.00 | 0.00 | 67 | 1012.3 |
| 20260902051553 | 64 | 223 | 1.0 | 7.0 | 0.00 | 0.00 | 0.00 | 67 | 1012.2 |
| 20260902050053 | 64 | 211 | 2.0 | 7.0 | 0.00 | 0.00 | 0.00 | 67 | 1012.2 |
| 20260902044557 | 64 | 188 | 4.0 | 7.0 | 0.00 | 0.00 | 0.00 | 67 | 1012.1 |